sensor_id;sensor_type;location;lat;lon;timestamp;temperature;humidity
8591;DHT22;4333;48.322;14.340;2022-08-03T00:00:47;18.50;99.90
8591;DHT22;4333;48.322;14.340;2022-08-03T00:03:12;18.50;99.90
8591;DHT22;4333;48.322;14.340;2022-08-03T00:05:38;18.50;99.90
8591;DHT22;4333;48.322;14.340;2022-08-03T00:08:04;18.50;99.90
8591;DHT22;4333;48.322;14.340;2022-08-03T00:10:30;18.50;99.90
8591;DHT22;4333;48.322;14.340;2022-08-03T00:12:56;18.50;99.90
8591;DHT22;4333;48.322;14.340;2022-08-03T00:15:22;18.50;99.90
8591;DHT22;4333;48.322;14.340;2022-08-03T00:17:47;18.40;99.90
8591;DHT22;4333;48.322;14.340;2022-08-03T00:20:13;18.40;99.90
8591;DHT22;4333;48.322;14.340;2022-08-03T00:22:39;18.40;99.90
8591;DHT22;4333;48.322;14.340;2022-08-03T00:25:05;18.40;99.90
8591;DHT22;4333;48.322;14.340;2022-08-03T00:27:31;18.40;99.90
8591;DHT22;4333;48.322;14.340;2022-08-03T00:29:56;18.30;99.90
8591;DHT22;4333;48.322;14.340;2022-08-03T00:32:24;18.30;99.90
8591;DHT22;4333;48.322;14.340;2022-08-03T00:34:50;18.20;99.90
8591;DHT22;4333;48.322;14.340;2022-08-03T00:37:16;18.00;99.90
8591;DHT22;4333;48.322;14.340;2022-08-03T00:39:42;18.00;99.90
8591;DHT22;4333;48.322;14.340;2022-08-03T00:42:10;18.00;99.90
8591;DHT22;4333;48.322;14.340;2022-08-03T00:44:40;18.10;99.90
8591;DHT22;4333;48.322;14.340;2022-08-03T00:47:07;18.00;99.90
8591;DHT22;4333;48.322;14.340;2022-08-03T00:49:37;17.90;99.90
8591;DHT22;4333;48.322;14.340;2022-08-03T00:52:04;18.00;99.90
8591;DHT22;4333;48.322;14.340;2022-08-03T00:54:30;18.00;99.90
8591;DHT22;4333;48.322;14.340;2022-08-03T00:56:56;18.10;99.90
8591;DHT22;4333;48.322;14.340;2022-08-03T00:59:22;18.10;99.90
8591;DHT22;4333;48.322;14.340;2022-08-03T01:01:48;18.10;99.90
8591;DHT22;4333;48.322;14.340;2022-08-03T01:04:13;18.00;99.90
8591;DHT22;4333;48.322;14.340;2022-08-03T01:06:47;18.00;99.90
8591;DHT22;4333;48.322;14.340;2022-08-03T01:12:09;18.00;99.90
8591;DHT22;4333;48.322;14.340;2022-08-03T01:18:24;17.90;99.90
8591;DHT22;4333;48.322;14.340;2022-08-03T01:20:57;17.90;99.90
8591;DHT22;4333;48.322;14.340;2022-08-03T01:23:58;17.90;99.90
8591;DHT22;4333;48.322;14.340;2022-08-03T01:32:23;17.80;99.90
8591;DHT22;4333;48.322;14.340;2022-08-03T01:34:59;17.80;99.90
8591;DHT22;4333;48.322;14.340;2022-08-03T01:37:36;17.90;99.90
8591;DHT22;4333;48.322;14.340;2022-08-03T01:40:07;17.80;99.90
8591;DHT22;4333;48.322;14.340;2022-08-03T01:42:34;17.80;99.90
8591;DHT22;4333;48.322;14.340;2022-08-03T01:45:06;17.80;99.90
8591;DHT22;4333;48.322;14.340;2022-08-03T01:47:33;17.80;99.90
8591;DHT22;4333;48.322;14.340;2022-08-03T01:50:03;17.80;99.90
8591;DHT22;4333;48.322;14.340;2022-08-03T01:52:30;17.80;99.90
8591;DHT22;4333;48.322;14.340;2022-08-03T01:55:01;17.70;99.90
8591;DHT22;4333;48.322;14.340;2022-08-03T01:57:28;17.70;99.90
8591;DHT22;4333;48.322;14.340;2022-08-03T01:59:56;17.70;99.90
8591;DHT22;4333;48.322;14.340;2022-08-03T02:02:24;17.70;99.90
8591;DHT22;4333;48.322;14.340;2022-08-03T02:04:53;17.70;99.90
8591;DHT22;4333;48.322;14.340;2022-08-03T02:07:21;17.70;99.90
8591;DHT22;4333;48.322;14.340;2022-08-03T02:09:49;17.70;99.90
8591;DHT22;4333;48.322;14.340;2022-08-03T02:12:16;17.60;99.90
8591;DHT22;4333;48.322;14.340;2022-08-03T02:14:44;17.40;99.90
8591;DHT22;4333;48.322;14.340;2022-08-03T02:17:13;17.30;99.90
8591;DHT22;4333;48.322;14.340;2022-08-03T02:19:43;17.30;99.90
8591;DHT22;4333;48.322;14.340;2022-08-03T02:22:10;17.30;99.90
8591;DHT22;4333;48.322;14.340;2022-08-03T02:24:37;17.40;99.90
8591;DHT22;4333;48.322;14.340;2022-08-03T02:27:06;17.40;99.90
8591;DHT22;4333;48.322;14.340;2022-08-03T02:29:35;17.40;99.90
8591;DHT22;4333;48.322;14.340;2022-08-03T02:32:03;17.40;99.90
8591;DHT22;4333;48.322;14.340;2022-08-03T02:34:30;17.30;99.90
8591;DHT22;4333;48.322;14.340;2022-08-03T02:36:58;17.20;99.90
8591;DHT22;4333;48.322;14.340;2022-08-03T02:39:27;17.10;99.90
8591;DHT22;4333;48.322;14.340;2022-08-03T02:41:58;17.10;99.90
8591;DHT22;4333;48.322;14.340;2022-08-03T02:44:31;17.20;99.90
8591;DHT22;4333;48.322;14.340;2022-08-03T02:47:09;17.20;99.90
8591;DHT22;4333;48.322;14.340;2022-08-03T02:49:37;17.20;99.90
8591;DHT22;4333;48.322;14.340;2022-08-03T02:52:03;17.20;99.90
8591;DHT22;4333;48.322;14.340;2022-08-03T02:54:37;17.20;99.90
8591;DHT22;4333;48.322;14.340;2022-08-03T02:57:04;17.30;99.90
8591;DHT22;4333;48.322;14.340;2022-08-03T02:59:31;17.20;99.90
8591;DHT22;4333;48.322;14.340;2022-08-03T03:01:59;17.30;99.90
8591;DHT22;4333;48.322;14.340;2022-08-03T03:04:30;17.20;99.90
8591;DHT22;4333;48.322;14.340;2022-08-03T03:06:57;17.10;99.90
8591;DHT22;4333;48.322;14.340;2022-08-03T03:09:24;17.10;99.90
8591;DHT22;4333;48.322;14.340;2022-08-03T03:11:52;16.90;99.90
8591;DHT22;4333;48.322;14.340;2022-08-03T03:14:19;16.90;99.90
8591;DHT22;4333;48.322;14.340;2022-08-03T03:16:46;16.80;99.90
8591;DHT22;4333;48.322;14.340;2022-08-03T03:19:13;16.80;99.90
8591;DHT22;4333;48.322;14.340;2022-08-03T03:21:42;16.80;99.90
8591;DHT22;4333;48.322;14.340;2022-08-03T03:24:08;16.70;99.90
8591;DHT22;4333;48.322;14.340;2022-08-03T03:26:35;16.70;99.90
8591;DHT22;4333;48.322;14.340;2022-08-03T03:29:02;16.70;99.90
8591;DHT22;4333;48.322;14.340;2022-08-03T03:31:30;16.60;99.90
8591;DHT22;4333;48.322;14.340;2022-08-03T03:33:59;16.70;99.90
8591;DHT22;4333;48.322;14.340;2022-08-03T03:36:27;16.60;99.90
8591;DHT22;4333;48.322;14.340;2022-08-03T03:38:58;16.60;99.90
8591;DHT22;4333;48.322;14.340;2022-08-03T03:41:24;16.60;99.90
8591;DHT22;4333;48.322;14.340;2022-08-03T03:43:50;16.50;99.90
8591;DHT22;4333;48.322;14.340;2022-08-03T03:46:16;16.60;99.90
8591;DHT22;4333;48.322;14.340;2022-08-03T03:48:42;16.50;99.90
8591;DHT22;4333;48.322;14.340;2022-08-03T03:51:09;16.50;99.90
8591;DHT22;4333;48.322;14.340;2022-08-03T03:53:34;16.50;99.90
8591;DHT22;4333;48.322;14.340;2022-08-03T03:56:00;16.50;99.90
8591;DHT22;4333;48.322;14.340;2022-08-03T03:58:26;16.40;99.90
8591;DHT22;4333;48.322;14.340;2022-08-03T04:00:52;16.40;99.90
8591;DHT22;4333;48.322;14.340;2022-08-03T04:03:18;16.40;99.90
8591;DHT22;4333;48.322;14.340;2022-08-03T04:05:44;16.40;99.90
8591;DHT22;4333;48.322;14.340;2022-08-03T04:08:31;16.50;99.90
8591;DHT22;4333;48.322;14.340;2022-08-03T04:11:50;16.50;99.90
8591;DHT22;4333;48.322;14.340;2022-08-03T04:16:55;16.50;99.90
8591;DHT22;4333;48.322;14.340;2022-08-03T04:19:27;16.50;99.90
8591;DHT22;4333;48.322;14.340;2022-08-03T04:21:58;16.50;99.90
8591;DHT22;4333;48.322;14.340;2022-08-03T04:24:29;16.60;99.90
8591;DHT22;4333;48.322;14.340;2022-08-03T04:26:58;16.60;99.90
8591;DHT22;4333;48.322;14.340;2022-08-03T04:29:25;16.60;99.90
8591;DHT22;4333;48.322;14.340;2022-08-03T04:31:54;16.50;99.90
8591;DHT22;4333;48.322;14.340;2022-08-03T04:34:20;16.60;99.90
8591;DHT22;4333;48.322;14.340;2022-08-03T04:36:51;16.60;99.90
8591;DHT22;4333;48.322;14.340;2022-08-03T04:39:26;16.60;99.90
8591;DHT22;4333;48.322;14.340;2022-08-03T04:41:54;16.60;99.90
8591;DHT22;4333;48.322;14.340;2022-08-03T04:44:23;16.60;99.90
8591;DHT22;4333;48.322;14.340;2022-08-03T04:46:50;16.70;99.90
8591;DHT22;4333;48.322;14.340;2022-08-03T04:49:16;16.70;99.90
8591;DHT22;4333;48.322;14.340;2022-08-03T04:51:42;16.70;99.90
8591;DHT22;4333;48.322;14.340;2022-08-03T04:54:12;16.70;99.90
8591;DHT22;4333;48.322;14.340;2022-08-03T04:56:42;16.70;99.90
8591;DHT22;4333;48.322;14.340;2022-08-03T04:59:09;16.80;99.90
8591;DHT22;4333;48.322;14.340;2022-08-03T05:01:35;16.80;99.90
8591;DHT22;4333;48.322;14.340;2022-08-03T05:04:03;16.90;99.90
8591;DHT22;4333;48.322;14.340;2022-08-03T05:06:32;17.00;99.90
8591;DHT22;4333;48.322;14.340;2022-08-03T05:08:57;17.00;99.90
8591;DHT22;4333;48.322;14.340;2022-08-03T05:13:57;17.00;99.90
8591;DHT22;4333;48.322;14.340;2022-08-03T05:16:22;17.00;99.90
8591;DHT22;4333;48.322;14.340;2022-08-03T05:18:50;17.00;99.90
8591;DHT22;4333;48.322;14.340;2022-08-03T05:21:16;17.10;99.90
8591;DHT22;4333;48.322;14.340;2022-08-03T05:23:43;17.10;99.90
8591;DHT22;4333;48.322;14.340;2022-08-03T05:26:09;17.20;99.90
8591;DHT22;4333;48.322;14.340;2022-08-03T05:28:37;17.30;99.90
8591;DHT22;4333;48.322;14.340;2022-08-03T05:31:02;17.30;99.90
8591;DHT22;4333;48.322;14.340;2022-08-03T05:33:28;17.50;99.90
8591;DHT22;4333;48.322;14.340;2022-08-03T05:35:54;17.50;99.90
8591;DHT22;4333;48.322;14.340;2022-08-03T05:38:20;17.50;99.90
8591;DHT22;4333;48.322;14.340;2022-08-03T05:40:45;17.60;99.90
8591;DHT22;4333;48.322;14.340;2022-08-03T05:43:11;17.60;99.90
8591;DHT22;4333;48.322;14.340;2022-08-03T05:45:37;17.70;99.90
8591;DHT22;4333;48.322;14.340;2022-08-03T05:48:04;18.10;99.90
8591;DHT22;4333;48.322;14.340;2022-08-03T05:50:30;19.20;99.90
8591;DHT22;4333;48.322;14.340;2022-08-03T05:52:58;20.50;99.90
8591;DHT22;4333;48.322;14.340;2022-08-03T05:55:24;21.60;99.90
8591;DHT22;4333;48.322;14.340;2022-08-03T05:57:49;22.20;99.90
8591;DHT22;4333;48.322;14.340;2022-08-03T06:00:16;22.80;99.90
8591;DHT22;4333;48.322;14.340;2022-08-03T06:02:42;23.60;99.90
8591;DHT22;4333;48.322;14.340;2022-08-03T06:05:08;24.80;99.90
8591;DHT22;4333;48.322;14.340;2022-08-03T06:07:37;25.80;99.90
8591;DHT22;4333;48.322;14.340;2022-08-03T06:10:04;27.50;99.90
8591;DHT22;4333;48.322;14.340;2022-08-03T06:12:30;28.70;99.90
8591;DHT22;4333;48.322;14.340;2022-08-03T06:14:56;29.40;98.00
8591;DHT22;4333;48.322;14.340;2022-08-03T06:17:25;29.70;94.60
8591;DHT22;4333;48.322;14.340;2022-08-03T06:19:53;30.00;92.60
8591;DHT22;4333;48.322;14.340;2022-08-03T06:22:19;29.60;92.50
8591;DHT22;4333;48.322;14.340;2022-08-03T06:24:45;28.60;94.00
8591;DHT22;4333;48.322;14.340;2022-08-03T06:27:14;28.80;94.50
8591;DHT22;4333;48.322;14.340;2022-08-03T06:29:39;30.00;92.40
8591;DHT22;4333;48.322;14.340;2022-08-03T06:32:05;31.20;85.90
8591;DHT22;4333;48.322;14.340;2022-08-03T06:34:31;32.30;78.20
8591;DHT22;4333;48.322;14.340;2022-08-03T06:36:57;33.50;70.50
8591;DHT22;4333;48.322;14.340;2022-08-03T06:39:22;34.70;60.00
8591;DHT22;4333;48.322;14.340;2022-08-03T06:41:48;34.60;54.30
8591;DHT22;4333;48.322;14.340;2022-08-03T06:44:16;34.20;51.20
8591;DHT22;4333;48.322;14.340;2022-08-03T06:46:42;33.70;55.00
8591;DHT22;4333;48.322;14.340;2022-08-03T06:49:08;34.00;53.50
8591;DHT22;4333;48.322;14.340;2022-08-03T06:51:33;35.20;52.50
8591;DHT22;4333;48.322;14.340;2022-08-03T06:53:59;36.20;50.00
8591;DHT22;4333;48.322;14.340;2022-08-03T06:56:25;33.40;45.50
8591;DHT22;4333;48.322;14.340;2022-08-03T06:58:51;31.40;50.30
8591;DHT22;4333;48.322;14.340;2022-08-03T07:01:16;30.40;58.00
8591;DHT22;4333;48.322;14.340;2022-08-03T07:03:44;31.20;58.50
8591;DHT22;4333;48.322;14.340;2022-08-03T07:06:10;31.30;59.80
8591;DHT22;4333;48.322;14.340;2022-08-03T07:08:36;31.10;60.40
8591;DHT22;4333;48.322;14.340;2022-08-03T07:11:02;31.10;58.90
8591;DHT22;4333;48.322;14.340;2022-08-03T07:13:30;32.00;61.30
8591;DHT22;4333;48.322;14.340;2022-08-03T07:15:56;33.20;58.10
8591;DHT22;4333;48.322;14.340;2022-08-03T07:18:21;33.90;53.70
8591;DHT22;4333;48.322;14.340;2022-08-03T07:20:47;33.90;51.00
8591;DHT22;4333;48.322;14.340;2022-08-03T07:23:16;33.70;53.40
8591;DHT22;4333;48.322;14.340;2022-08-03T07:25:44;33.90;51.90
8591;DHT22;4333;48.322;14.340;2022-08-03T07:28:10;33.70;50.40
8591;DHT22;4333;48.322;14.340;2022-08-03T07:30:35;31.80;52.20
8591;DHT22;4333;48.322;14.340;2022-08-03T07:33:04;29.30;59.90
8591;DHT22;4333;48.322;14.340;2022-08-03T07:35:29;27.90;71.10
8591;DHT22;4333;48.322;14.340;2022-08-03T07:37:57;27.20;81.60
8591;DHT22;4333;48.322;14.340;2022-08-03T07:40:23;27.70;90.30
8591;DHT22;4333;48.322;14.340;2022-08-03T07:42:49;27.70;90.50
8591;DHT22;4333;48.322;14.340;2022-08-03T07:45:15;27.80;89.10
8591;DHT22;4333;48.322;14.340;2022-08-03T07:47:40;26.80;92.50
8591;DHT22;4333;48.322;14.340;2022-08-03T07:50:07;26.80;97.00
8591;DHT22;4333;48.322;14.340;2022-08-03T07:52:33;27.60;98.80
8591;DHT22;4333;48.322;14.340;2022-08-03T07:55:17;27.80;94.50
8591;DHT22;4333;48.322;14.340;2022-08-03T07:57:43;27.10;93.80
8591;DHT22;4333;48.322;14.340;2022-08-03T08:00:20;27.70;94.00
8591;DHT22;4333;48.322;14.340;2022-08-03T08:02:45;28.60;91.10
8591;DHT22;4333;48.322;14.340;2022-08-03T08:05:11;28.80;91.30
8591;DHT22;4333;48.322;14.340;2022-08-03T08:07:38;28.00;91.30
8591;DHT22;4333;48.322;14.340;2022-08-03T08:10:06;28.00;91.70
8591;DHT22;4333;48.322;14.340;2022-08-03T08:12:32;28.00;91.40
8591;DHT22;4333;48.322;14.340;2022-08-03T08:14:57;28.10;91.60
8591;DHT22;4333;48.322;14.340;2022-08-03T08:17:23;28.60;88.80
8591;DHT22;4333;48.322;14.340;2022-08-03T08:19:49;29.50;91.70
8591;DHT22;4333;48.322;14.340;2022-08-03T08:22:15;29.50;77.50
8591;DHT22;4333;48.322;14.340;2022-08-03T08:24:40;28.80;80.90
8591;DHT22;4333;48.322;14.340;2022-08-03T08:27:09;28.80;84.80
8591;DHT22;4333;48.322;14.340;2022-08-03T08:29:37;28.20;85.60
8591;DHT22;4333;48.322;14.340;2022-08-03T08:32:04;28.60;84.80
8591;DHT22;4333;48.322;14.340;2022-08-03T08:34:30;28.20;90.00
8591;DHT22;4333;48.322;14.340;2022-08-03T08:36:56;28.60;88.10
8591;DHT22;4333;48.322;14.340;2022-08-03T08:39:21;28.80;90.00
8591;DHT22;4333;48.322;14.340;2022-08-03T08:41:50;29.10;86.00
8591;DHT22;4333;48.322;14.340;2022-08-03T08:44:16;28.50;83.30
8591;DHT22;4333;48.322;14.340;2022-08-03T08:46:42;27.80;84.80
8591;DHT22;4333;48.322;14.340;2022-08-03T08:49:11;27.30;88.70
8591;DHT22;4333;48.322;14.340;2022-08-03T08:51:42;27.20;91.40
8591;DHT22;4333;48.322;14.340;2022-08-03T08:54:10;27.40;89.90
8591;DHT22;4333;48.322;14.340;2022-08-03T08:56:38;27.40;91.10
8591;DHT22;4333;48.322;14.340;2022-08-03T08:59:07;27.60;87.20
8591;DHT22;4333;48.322;14.340;2022-08-03T09:01:33;27.80;90.50
8591;DHT22;4333;48.322;14.340;2022-08-03T09:03:59;28.00;90.00
8591;DHT22;4333;48.322;14.340;2022-08-03T09:06:25;27.80;89.70
8591;DHT22;4333;48.322;14.340;2022-08-03T09:08:50;28.00;83.60
8591;DHT22;4333;48.322;14.340;2022-08-03T09:11:20;27.80;85.10
8591;DHT22;4333;48.322;14.340;2022-08-03T09:13:47;27.80;85.90
8591;DHT22;4333;48.322;14.340;2022-08-03T09:16:21;28.00;84.90
8591;DHT22;4333;48.322;14.340;2022-08-03T09:18:52;27.70;82.40
8591;DHT22;4333;48.322;14.340;2022-08-03T09:23:54;28.30;83.80
8591;DHT22;4333;48.322;14.340;2022-08-03T09:26:25;28.60;80.60
8591;DHT22;4333;48.322;14.340;2022-08-03T09:29:06;28.10;79.20
8591;DHT22;4333;48.322;14.340;2022-08-03T09:31:42;28.20;86.20
8591;DHT22;4333;48.322;14.340;2022-08-03T09:34:14;28.00;79.50
8591;DHT22;4333;48.322;14.340;2022-08-03T09:36:44;28.00;77.80
8591;DHT22;4333;48.322;14.340;2022-08-03T09:39:17;27.90;79.00
8591;DHT22;4333;48.322;14.340;2022-08-03T09:42:02;27.90;78.70
8591;DHT22;4333;48.322;14.340;2022-08-03T09:44:36;28.20;80.00
8591;DHT22;4333;48.322;14.340;2022-08-03T09:47:03;28.60;77.60
8591;DHT22;4333;48.322;14.340;2022-08-03T09:49:31;29.10;78.20
8591;DHT22;4333;48.322;14.340;2022-08-03T09:52:00;29.20;77.50
8591;DHT22;4333;48.322;14.340;2022-08-03T09:54:30;29.70;74.40
8591;DHT22;4333;48.322;14.340;2022-08-03T09:56:59;30.00;70.10
8591;DHT22;4333;48.322;14.340;2022-08-03T09:59:27;30.40;70.00
8591;DHT22;4333;48.322;14.340;2022-08-03T10:01:54;30.10;69.10
8591;DHT22;4333;48.322;14.340;2022-08-03T10:04:21;29.30;78.20
8591;DHT22;4333;48.322;14.340;2022-08-03T10:07:06;29.50;78.10
8591;DHT22;4333;48.322;14.340;2022-08-03T10:09:34;29.50;72.00
8591;DHT22;4333;48.322;14.340;2022-08-03T10:12:08;29.50;70.10
8591;DHT22;4333;48.322;14.340;2022-08-03T10:14:37;30.20;66.50
8591;DHT22;4333;48.322;14.340;2022-08-03T10:17:03;30.80;62.60
8591;DHT22;4333;48.322;14.340;2022-08-03T10:19:32;30.70;59.40
8591;DHT22;4333;48.322;14.340;2022-08-03T10:22:11;31.10;60.40
8591;DHT22;4333;48.322;14.340;2022-08-03T10:24:45;30.90;62.60
8591;DHT22;4333;48.322;14.340;2022-08-03T10:27:13;30.30;62.00
8591;DHT22;4333;48.322;14.340;2022-08-03T10:29:51;29.90;62.70
8591;DHT22;4333;48.322;14.340;2022-08-03T10:32:29;29.80;59.40
8591;DHT22;4333;48.322;14.340;2022-08-03T10:35:06;30.00;60.20
8591;DHT22;4333;48.322;14.340;2022-08-03T10:37:40;30.90;60.90
8591;DHT22;4333;48.322;14.340;2022-08-03T10:40:13;31.00;60.00
8591;DHT22;4333;48.322;14.340;2022-08-03T10:42:45;30.20;56.90
8591;DHT22;4333;48.322;14.340;2022-08-03T10:45:18;29.90;56.80
8591;DHT22;4333;48.322;14.340;2022-08-03T10:47:46;29.70;60.00
8591;DHT22;4333;48.322;14.340;2022-08-03T10:50:13;29.50;59.00
8591;DHT22;4333;48.322;14.340;2022-08-03T10:55:33;30.40;57.00
8591;DHT22;4333;48.322;14.340;2022-08-03T11:01:10;30.10;54.60
8591;DHT22;4333;48.322;14.340;2022-08-03T11:06:21;30.20;55.70
8591;DHT22;4333;48.322;14.340;2022-08-03T11:09:35;30.00;52.70
8591;DHT22;4333;48.322;14.340;2022-08-03T11:11:39;29.90;53.30
8591;DHT22;4333;48.322;14.340;2022-08-03T11:14:19;30.20;54.20
8591;DHT22;4333;48.322;14.340;2022-08-03T11:16:47;31.20;52.10
8591;DHT22;4333;48.322;14.340;2022-08-03T11:19:19;31.90;53.90
8591;DHT22;4333;48.322;14.340;2022-08-03T11:30:22;31.00;52.70
8591;DHT22;4333;48.322;14.340;2022-08-03T11:32:52;31.30;53.30
8591;DHT22;4333;48.322;14.340;2022-08-03T11:40:52;31.80;48.90
8591;DHT22;4333;48.322;14.340;2022-08-03T11:46:08;32.30;48.80
8591;DHT22;4333;48.322;14.340;2022-08-03T11:48:48;32.90;48.30
8591;DHT22;4333;48.322;14.340;2022-08-03T11:51:29;32.20;40.10
8591;DHT22;4333;48.322;14.340;2022-08-03T11:54:01;31.20;44.50
8591;DHT22;4333;48.322;14.340;2022-08-03T11:56:28;31.80;48.00
8591;DHT22;4333;48.322;14.340;2022-08-03T11:58:59;32.70;46.90
8591;DHT22;4333;48.322;14.340;2022-08-03T12:01:25;32.90;41.50
8591;DHT22;4333;48.322;14.340;2022-08-03T12:03:51;32.10;42.40
8591;DHT22;4333;48.322;14.340;2022-08-03T12:06:18;31.40;41.50
8591;DHT22;4333;48.322;14.340;2022-08-03T12:08:46;31.20;43.40
8591;DHT22;4333;48.322;14.340;2022-08-03T12:11:14;31.00;43.40
8591;DHT22;4333;48.322;14.340;2022-08-03T12:13:45;30.80;42.90
8591;DHT22;4333;48.322;14.340;2022-08-03T12:16:18;31.40;45.80
8591;DHT22;4333;48.322;14.340;2022-08-03T12:19:00;32.30;41.20
8591;DHT22;4333;48.322;14.340;2022-08-03T12:21:26;31.90;42.30
8591;DHT22;4333;48.322;14.340;2022-08-03T12:24:02;31.90;43.70
8591;DHT22;4333;48.322;14.340;2022-08-03T12:26:31;31.80;43.70
8591;DHT22;4333;48.322;14.340;2022-08-03T12:29:06;31.40;44.90
8591;DHT22;4333;48.322;14.340;2022-08-03T12:31:32;31.80;50.00
8591;DHT22;4333;48.322;14.340;2022-08-03T12:34:00;32.70;44.00
8591;DHT22;4333;48.322;14.340;2022-08-03T12:36:28;32.90;39.70
8591;DHT22;4333;48.322;14.340;2022-08-03T12:38:59;32.40;36.20
8591;DHT22;4333;48.322;14.340;2022-08-03T12:41:29;32.10;35.30
8591;DHT22;4333;48.322;14.340;2022-08-03T12:43:56;31.50;38.00
8591;DHT22;4333;48.322;14.340;2022-08-03T12:46:22;31.30;41.10
8591;DHT22;4333;48.322;14.340;2022-08-03T12:51:29;31.30;43.20
8591;DHT22;4333;48.322;14.340;2022-08-03T12:53:56;31.30;40.30
8591;DHT22;4333;48.322;14.340;2022-08-03T12:56:25;31.30;39.40
8591;DHT22;4333;48.322;14.340;2022-08-03T12:58:53;31.20;42.40
8591;DHT22;4333;48.322;14.340;2022-08-03T13:01:21;31.80;42.60
8591;DHT22;4333;48.322;14.340;2022-08-03T13:03:50;31.60;35.60
8591;DHT22;4333;48.322;14.340;2022-08-03T13:08:45;31.80;42.50
8591;DHT22;4333;48.322;14.340;2022-08-03T13:11:24;31.10;40.20
8591;DHT22;4333;48.322;14.340;2022-08-03T13:13:53;31.10;39.30
8591;DHT22;4333;48.322;14.340;2022-08-03T13:16:23;31.60;40.30
8591;DHT22;4333;48.322;14.340;2022-08-03T13:18:50;31.60;36.70
8591;DHT22;4333;48.322;14.340;2022-08-03T13:21:22;31.70;35.70
8591;DHT22;4333;48.322;14.340;2022-08-03T13:23:48;31.90;35.60
8591;DHT22;4333;48.322;14.340;2022-08-03T13:26:14;32.00;33.80
8591;DHT22;4333;48.322;14.340;2022-08-03T13:28:39;31.90;33.60
8591;DHT22;4333;48.322;14.340;2022-08-03T13:31:06;32.20;35.20
8591;DHT22;4333;48.322;14.340;2022-08-03T13:33:32;32.60;31.40
8591;DHT22;4333;48.322;14.340;2022-08-03T13:36:00;32.70;31.90
8591;DHT22;4333;48.322;14.340;2022-08-03T13:38:25;32.60;30.50
8591;DHT22;4333;48.322;14.340;2022-08-03T13:40:52;32.70;28.80
8591;DHT22;4333;48.322;14.340;2022-08-03T13:43:20;33.30;30.10
8591;DHT22;4333;48.322;14.340;2022-08-03T13:45:47;33.90;28.70
8591;DHT22;4333;48.322;14.340;2022-08-03T13:48:15;33.70;28.80
8591;DHT22;4333;48.322;14.340;2022-08-03T13:50:41;33.70;27.60
8591;DHT22;4333;48.322;14.340;2022-08-03T13:53:06;33.40;27.70
8591;DHT22;4333;48.322;14.340;2022-08-03T13:55:32;33.00;27.50
8591;DHT22;4333;48.322;14.340;2022-08-03T13:57:58;32.70;26.50
8591;DHT22;4333;48.322;14.340;2022-08-03T14:00:26;32.70;28.20
8591;DHT22;4333;48.322;14.340;2022-08-03T14:02:52;32.20;27.20
8591;DHT22;4333;48.322;14.340;2022-08-03T14:05:20;32.10;26.00
8591;DHT22;4333;48.322;14.340;2022-08-03T14:07:46;32.20;26.40
8591;DHT22;4333;48.322;14.340;2022-08-03T14:10:18;32.10;27.90
8591;DHT22;4333;48.322;14.340;2022-08-03T14:12:44;32.30;28.00
8591;DHT22;4333;48.322;14.340;2022-08-03T14:15:10;32.30;26.80
8591;DHT22;4333;48.322;14.340;2022-08-03T14:17:37;32.40;26.50
8591;DHT22;4333;48.322;14.340;2022-08-03T14:20:03;32.60;27.40
8591;DHT22;4333;48.322;14.340;2022-08-03T14:22:31;32.80;25.70
8591;DHT22;4333;48.322;14.340;2022-08-03T14:24:56;32.70;24.60
8591;DHT22;4333;48.322;14.340;2022-08-03T14:27:22;32.80;26.00
8591;DHT22;4333;48.322;14.340;2022-08-03T14:29:48;32.50;25.50
8591;DHT22;4333;48.322;14.340;2022-08-03T14:32:14;32.50;25.80
8591;DHT22;4333;48.322;14.340;2022-08-03T14:34:40;32.40;25.90
8591;DHT22;4333;48.322;14.340;2022-08-03T14:37:05;32.40;25.20
8591;DHT22;4333;48.322;14.340;2022-08-03T14:39:34;32.20;23.50
8591;DHT22;4333;48.322;14.340;2022-08-03T14:42:00;32.10;25.20
8591;DHT22;4333;48.322;14.340;2022-08-03T14:44:26;32.10;24.00
8591;DHT22;4333;48.322;14.340;2022-08-03T14:46:52;32.10;24.80
8591;DHT22;4333;48.322;14.340;2022-08-03T14:49:17;32.00;23.70
8591;DHT22;4333;48.322;14.340;2022-08-03T14:51:43;32.20;24.40
8591;DHT22;4333;48.322;14.340;2022-08-03T14:54:09;32.30;26.10
8591;DHT22;4333;48.322;14.340;2022-08-03T14:56:35;32.30;24.00
8591;DHT22;4333;48.322;14.340;2022-08-03T14:59:00;32.10;24.10
8591;DHT22;4333;48.322;14.340;2022-08-03T15:01:28;31.90;25.10
8591;DHT22;4333;48.322;14.340;2022-08-03T15:03:54;32.10;25.40
8591;DHT22;4333;48.322;14.340;2022-08-03T15:06:20;32.10;23.90
8591;DHT22;4333;48.322;14.340;2022-08-03T15:08:46;32.40;24.40
8591;DHT22;4333;48.322;14.340;2022-08-03T15:11:11;32.40;23.70
8591;DHT22;4333;48.322;14.340;2022-08-03T15:13:37;32.20;24.60
8591;DHT22;4333;48.322;14.340;2022-08-03T15:16:05;32.10;24.30
8591;DHT22;4333;48.322;14.340;2022-08-03T15:18:35;32.00;24.10
8591;DHT22;4333;48.322;14.340;2022-08-03T15:21:01;31.90;24.20
8591;DHT22;4333;48.322;14.340;2022-08-03T15:23:26;31.80;22.00
8591;DHT22;4333;48.322;14.340;2022-08-03T15:25:52;31.90;21.80
8591;DHT22;4333;48.322;14.340;2022-08-03T15:28:18;31.90;24.00
8591;DHT22;4333;48.322;14.340;2022-08-03T15:30:45;31.90;24.60
8591;DHT22;4333;48.322;14.340;2022-08-03T15:33:11;32.10;24.40
8591;DHT22;4333;48.322;14.340;2022-08-03T15:35:36;32.10;23.80
8591;DHT22;4333;48.322;14.340;2022-08-03T15:38:05;32.20;22.90
8591;DHT22;4333;48.322;14.340;2022-08-03T15:40:31;32.10;22.80
8591;DHT22;4333;48.322;14.340;2022-08-03T15:42:59;32.70;23.60
8591;DHT22;4333;48.322;14.340;2022-08-03T15:45:25;32.80;22.90
8591;DHT22;4333;48.322;14.340;2022-08-03T15:47:50;32.80;23.90
8591;DHT22;4333;48.322;14.340;2022-08-03T15:50:16;32.90;23.90
8591;DHT22;4333;48.322;14.340;2022-08-03T15:52:42;32.70;26.60
8591;DHT22;4333;48.322;14.340;2022-08-03T15:55:08;32.50;25.30
8591;DHT22;4333;48.322;14.340;2022-08-03T15:57:34;32.50;26.10
8591;DHT22;4333;48.322;14.340;2022-08-03T16:00:01;32.70;26.90
8591;DHT22;4333;48.322;14.340;2022-08-03T16:02:27;32.70;27.80
8591;DHT22;4333;48.322;14.340;2022-08-03T16:04:52;32.20;25.80
8591;DHT22;4333;48.322;14.340;2022-08-03T16:07:18;32.10;27.70
8591;DHT22;4333;48.322;14.340;2022-08-03T16:10:04;32.00;26.30
8591;DHT22;4333;48.322;14.340;2022-08-03T16:12:30;31.70;27.70
8591;DHT22;4333;48.322;14.340;2022-08-03T16:14:55;31.50;27.50
8591;DHT22;4333;48.322;14.340;2022-08-03T16:17:22;31.50;26.90
8591;DHT22;4333;48.322;14.340;2022-08-03T16:19:48;31.50;28.10
8591;DHT22;4333;48.322;14.340;2022-08-03T16:22:14;31.70;28.00
8591;DHT22;4333;48.322;14.340;2022-08-03T16:24:41;31.90;29.60
8591;DHT22;4333;48.322;14.340;2022-08-03T16:27:07;31.70;30.20
8591;DHT22;4333;48.322;14.340;2022-08-03T16:29:33;31.60;31.20
8591;DHT22;4333;48.322;14.340;2022-08-03T16:31:59;31.40;33.40
8591;DHT22;4333;48.322;14.340;2022-08-03T16:34:32;31.40;31.20
8591;DHT22;4333;48.322;14.340;2022-08-03T16:36:58;31.30;32.00
8591;DHT22;4333;48.322;14.340;2022-08-03T16:39:24;31.30;33.50
8591;DHT22;4333;48.322;14.340;2022-08-03T16:41:49;31.10;34.90